Terminal Aerodrome Forecast
Issued by NWS

Home | Current Version | Previous Version | Graphics & Text | Print | Product List | Glossary On
Versions: 1 2 3 4 5 6 7 8 9 10 11 12
000
FTUS43 KFGF 241121
TAFBJI
TAF
KBJI 241121Z 2412/2512 33005KT P6SM BKN250
     FM241800 35012KT P6SM SCT150
     FM250200 33010KT P6SM SCT035=

USA.gov is the U.S. government's official web portal to all federal, state and local government web resources and services.